Time;durP1;ratioP1;P1;durP2;ratioP2;P2;SDS_P1;SDS_P2;PMS_P1;PMS_P2;Temp;Humidity;BMP_temperature;BMP_pressure;BME280_temperature;BME280_humidity;BME280_pressure;Samples;Min_cycle;Max_cycle;Signal;HPM_P1;HPM_P2
2022/01/04 00:00:10;;;;;;;;;;;;;;;16.64;41.40;98747.88;4483125;32;34622;-85
2022/01/04 00:02:39;;;;;;;;;;;;;;;16.36;41.87;98745.72;4483237;32;34275;-90
2022/01/04 00:05:07;;;;;;;;;;;;;;;16.49;41.94;98752.50;4482052;32;33901;-90
2022/01/04 00:07:34;;;;;;;;;;;;;;;15.99;42.43;98753.34;4483390;32;34439;-89
2022/01/04 00:10:01;;;;;;;;;;;;;;;15.25;44.54;98748.25;4484161;32;34293;-89
2022/01/04 00:15:14;;;;;;;;;;;;;;;15.12;44.60;98741.47;4476782;32;34871;-86
2022/01/04 00:17:42;;;;;;;;;;;;;;;15.45;44.06;98737.53;4482815;32;35343;-90
2022/01/04 00:20:11;;;;;;;;;;;;;;;15.64;43.73;98744.22;4481835;32;34852;-84
2022/01/04 00:22:38;;;;;;;;;;;;;;;15.50;44.07;98752.28;4483802;32;34291;-86
2022/01/04 00:25:05;;;;;;;;;;;;;;;15.57;43.63;98733.03;4482981;32;35207;-90
2022/01/04 00:27:33;;;;;;;;;;;;;;;15.32;44.60;98742.06;4484028;32;34336;-86
2022/01/04 00:30:00;;;;;;;;;;;;;;;15.76;44.03;98743.25;4483994;32;34272;-90
2022/01/04 00:32:27;;;;;;;;;;;;;;;15.04;45.60;98741.56;4483661;32;34227;-87
2022/01/04 00:34:54;;;;;;;;;;;;;;;15.27;45.18;98733.44;4483364;32;33993;-85
2022/01/04 00:37:21;;;;;;;;;;;;;;;15.61;44.17;98738.19;4483883;32;35234;-89
2022/01/04 00:39:49;;;;;;;;;;;;;;;15.60;43.52;98736.47;4483149;32;34569;-84
2022/01/04 00:42:16;;;;;;;;;;;;;;;15.57;44.73;98746.09;4483475;32;34278;-89
2022/01/04 00:44:43;;;;;;;;;;;;;;;15.48;45.05;98743.59;4482211;32;34258;-87
2022/01/04 00:47:11;;;;;;;;;;;;;;;15.78;44.19;98749.28;4482923;32;35388;-89
2022/01/04 00:49:39;;;;;;;;;;;;;;;16.34;43.09;98736.22;4483633;32;34220;-88
2022/01/04 00:52:06;;;;;;;;;;;;;;;16.56;42.66;98744.53;4483061;32;33447;-89
2022/01/04 00:54:35;;;;;;;;;;;;;;;15.06;46.03;98743.25;4483071;31;33707;-85
2022/01/04 00:57:02;;;;;;;;;;;;;;;15.65;44.16;98726.81;4483599;32;33979;-87
2022/01/04 00:59:29;;;;;;;;;;;;;;;15.57;44.95;98730.41;4483343;32;34991;-85
2022/01/04 01:01:57;;;;;;;;;;;;;;;16.18;43.58;98735.59;4482941;32;33553;-86
2022/01/04 01:04:25;;;;;;;;;;;;;;;16.62;42.61;98733.94;4483419;32;33725;-88
2022/01/04 01:06:52;;;;;;;;;;;;;;;16.84;42.09;98729.19;4483292;32;34951;-86
2022/01/04 01:09:21;;;;;;;;;;;;;;;16.10;43.56;98721.78;4482732;32;34526;-88
2022/01/04 01:11:49;;;;;;;;;;;;;;;16.65;42.29;98729.53;4482931;32;33208;-87
2022/01/04 01:14:16;;;;;;;;;;;;;;;16.35;43.02;98732.69;4482424;32;33557;-90
2022/01/04 01:16:43;;;;;;;;;;;;;;;16.56;42.66;98728.84;4483606;32;33976;-89
2022/01/04 01:19:10;;;;;;;;;;;;;;;16.74;42.43;98728.50;4482504;32;33876;-88
2022/01/04 01:21:37;;;;;;;;;;;;;;;16.76;42.40;98731.97;4483816;31;33271;-88
2022/01/04 01:24:05;;;;;;;;;;;;;;;17.14;41.67;98717.25;4482197;32;33448;-89
2022/01/04 01:26:32;;;;;;;;;;;;;;;17.01;41.73;98709.66;4483834;32;34981;-89
2022/01/04 01:28:59;;;;;;;;;;;;;;;16.99;41.89;98711.44;4483342;32;34157;-88
2022/01/04 01:31:28;;;;;;;;;;;;;;;15.89;43.79;98716.00;4483690;32;33290;-89
2022/01/04 01:33:55;;;;;;;;;;;;;;;15.63;44.23;98712.91;4483230;32;34255;-89
2022/01/04 01:36:22;;;;;;;;;;;;;;;16.15;43.35;98704.28;4483434;32;34628;-89
2022/01/04 01:38:50;;;;;;;;;;;;;;;16.31;43.09;98695.25;4482865;32;35080;-86
2022/01/04 01:41:17;;;;;;;;;;;;;;;16.58;42.57;98704.34;4483125;32;33559;-86
2022/01/04 01:43:44;;;;;;;;;;;;;;;16.80;41.93;98710.06;4483382;31;34327;-89
2022/01/04 01:46:12;;;;;;;;;;;;;;;15.57;44.41;98696.44;4482990;32;34732;-87
2022/01/04 01:48:39;;;;;;;;;;;;;;;15.96;43.62;98688.03;4475896;32;34922;-88
2022/01/04 01:51:06;;;;;;;;;;;;;;;16.18;43.20;98680.69;4483276;32;34228;-86
2022/01/04 01:53:33;;;;;;;;;;;;;;;16.49;42.49;98678.38;4482422;32;34766;-85
2022/01/04 01:56:01;;;;;;;;;;;;;;;16.38;42.55;98673.34;4483362;32;35245;-86
2022/01/04 01:58:28;;;;;;;;;;;;;;;14.59;46.97;98662.94;4482608;32;34215;-85
2022/01/04 02:00:55;;;;;;;;;;;;;;;16.08;43.39;98652.97;4482930;32;33500;-89
2022/01/04 02:03:23;;;;;;;;;;;;;;;15.69;44.14;98648.38;4483230;32;34833;-86
2022/01/04 02:05:51;;;;;;;;;;;;;;;15.18;45.25;98624.75;4481790;32;34616;-84
2022/01/04 02:08:18;;;;;;;;;;;;;;;15.39;45.07;98607.91;4482399;32;34156;-86
2022/01/04 02:10:45;;;;;;;;;;;;;;;15.08;45.40;98603.12;4481291;32;34276;-86
2022/01/04 02:13:13;;;;;;;;;;;;;;;15.32;45.05;98590.59;4482797;32;33957;-85
2022/01/04 02:15:40;;;;;;;;;;;;;;;16.04;43.41;98605.09;4482997;32;34411;-89
2022/01/04 02:18:08;;;;;;;;;;;;;;;14.99;45.63;98590.19;4483075;32;34626;-88
2022/01/04 02:20:35;;;;;;;;;;;;;;;15.26;45.08;98577.63;4482715;31;34397;-89
2022/01/04 02:23:02;;;;;;;;;;;;;;;15.23;45.29;98581.16;4482310;32;34249;-86
2022/01/04 02:25:30;;;;;;;;;;;;;;;15.81;43.85;98569.75;4482864;32;34255;-89
2022/01/04 02:27:57;;;;;;;;;;;;;;;14.36;47.39;98569.28;4481784;32;33793;-88
2022/01/04 02:30:24;;;;;;;;;;;;;;;14.98;45.83;98565.00;4482970;32;33280;-85
2022/01/04 02:32:52;;;;;;;;;;;;;;;14.95;46.06;98570.25;4483049;32;33690;-86
2022/01/04 02:35:25;;;;;;;;;;;;;;;14.63;46.93;98575.06;4482784;32;34522;-88
2022/01/04 02:37:53;;;;;;;;;;;;;;;14.78;46.58;98567.03;4480865;32;35331;-87
2022/01/04 02:40:20;;;;;;;;;;;;;;;14.59;46.82;98566.41;4481799;32;33298;-87
2022/01/04 02:42:47;;;;;;;;;;;;;;;14.29;47.90;98584.13;4482935;32;34159;-89
2022/01/04 02:45:14;;;;;;;;;;;;;;;14.01;48.71;98580.94;4481814;32;35261;-85
2022/01/04 02:47:42;;;;;;;;;;;;;;;14.26;48.19;98584.16;4482691;32;34131;-88
2022/01/04 02:50:09;;;;;;;;;;;;;;;14.17;48.27;98589.50;4482694;32;33419;-85
2022/01/04 02:52:38;;;;;;;;;;;;;;;14.34;48.09;98578.84;4481655;32;35411;-88
2022/01/04 02:55:06;;;;;;;;;;;;;;;14.10;48.63;98578.25;4481356;32;35109;-86
2022/01/04 02:57:33;;;;;;;;;;;;;;;14.65;47.57;98581.09;4481357;32;35035;-87
2022/01/04 03:00:01;;;;;;;;;;;;;;;14.23;48.34;98585.94;4465277;32;32758;-89
2022/01/04 03:02:28;;;;;;;;;;;;;;;14.34;48.31;98577.09;4472637;32;34981;-88
2022/01/04 03:04:55;;;;;;;;;;;;;;;14.45;47.70;98578.72;4481894;32;34427;-86
2022/01/04 03:07:23;;;;;;;;;;;;;;;14.22;48.44;98572.03;4482221;32;35027;-88
2022/01/04 03:09:50;;;;;;;;;;;;;;;14.90;47.03;98574.69;4481777;32;34429;-88
2022/01/04 03:12:17;;;;;;;;;;;;;;;15.41;45.48;98573.91;4482178;32;34246;-87
2022/01/04 03:14:45;;;;;;;;;;;;;;;15.17;46.09;98569.94;4480985;32;34942;-87
2022/01/04 03:17:12;;;;;;;;;;;;;;;15.65;44.99;98555.25;4482303;32;35095;-89
2022/01/04 03:19:39;;;;;;;;;;;;;;;15.38;45.40;98543.50;4480459;32;33466;-89
2022/01/04 03:22:06;;;;;;;;;;;;;;;15.73;44.34;98547.28;4481608;32;34131;-88
2022/01/04 03:24:34;;;;;;;;;;;;;;;15.53;44.53;98548.47;4482111;32;34303;-88
2022/01/04 03:27:01;;;;;;;;;;;;;;;15.65;44.35;98546.53;4482146;32;34012;-87
2022/01/04 03:29:28;;;;;;;;;;;;;;;15.79;43.86;98541.91;4481477;32;32845;-86
2022/01/04 03:31:58;;;;;;;;;;;;;;;16.04;43.08;98531.88;4480266;32;34255;-84
2022/01/04 03:34:25;;;;;;;;;;;;;;;16.02;42.76;98531.03;4482199;32;34338;-88
2022/01/04 03:36:52;;;;;;;;;;;;;;;16.18;42.38;98521.16;4482610;32;34076;-85
2022/01/04 03:39:19;;;;;;;;;;;;;;;16.20;42.16;98514.13;4483764;32;33592;-86
2022/01/04 03:41:47;;;;;;;;;;;;;;;16.26;41.70;98509.63;4484035;32;34195;-88
2022/01/04 03:44:18;;;;;;;;;;;;;;;16.15;41.55;98500.28;4483482;31;35153;-88
2022/01/04 03:46:50;;;;;;;;;;;;;;;15.90;41.80;98505.13;4482680;32;33888;-88
2022/01/04 03:49:18;;;;;;;;;;;;;;;15.74;42.05;98510.66;4482240;32;33051;-85
2022/01/04 03:51:45;;;;;;;;;;;;;;;15.76;42.12;98515.88;4484027;32;34010;-84
2022/01/04 03:54:12;;;;;;;;;;;;;;;15.82;42.04;98518.34;4484043;32;34909;-89
2022/01/04 03:56:39;;;;;;;;;;;;;;;15.79;42.13;98513.19;4484067;32;34827;-84
2022/01/04 03:59:07;;;;;;;;;;;;;;;15.93;41.63;98505.94;4483545;32;34561;-87
2022/01/04 04:01:34;;;;;;;;;;;;;;;15.82;41.71;98494.81;4483522;32;33805;-87
2022/01/04 04:04:01;;;;;;;;;;;;;;;15.38;43.10;98499.09;4483769;32;34180;-84
2022/01/04 04:06:29;;;;;;;;;;;;;;;15.41;42.49;98492.94;4483931;32;33954;-89
2022/01/04 04:08:57;;;;;;;;;;;;;;;15.27;42.25;98481.00;4483697;31;33147;-90
2022/01/04 04:11:24;;;;;;;;;;;;;;;15.39;41.88;98472.06;4483980;32;35126;-89
2022/01/04 04:13:53;;;;;;;;;;;;;;;15.58;41.37;98480.44;4483929;32;33928;-85
2022/01/04 04:16:20;;;;;;;;;;;;;;;15.48;41.46;98484.97;4483171;32;33513;-85
2022/01/04 04:18:47;;;;;;;;;;;;;;;15.57;41.32;98482.19;4482276;32;33585;-85
2022/01/04 04:21:15;;;;;;;;;;;;;;;15.73;41.04;98487.19;4483699;32;35039;-85
2022/01/04 04:23:43;;;;;;;;;;;;;;;15.41;41.67;98478.13;4483753;32;35323;-86
2022/01/04 04:26:10;;;;;;;;;;;;;;;15.33;41.60;98480.88;4483600;32;35103;-88
2022/01/04 04:28:37;;;;;;;;;;;;;;;15.17;42.55;98483.78;4483689;32;34319;-84
2022/01/04 04:31:05;;;;;;;;;;;;;;;15.37;41.95;98468.63;4483436;32;34201;-87
2022/01/04 04:33:33;;;;;;;;;;;;;;;15.41;41.89;98469.44;4483235;32;34175;-86
2022/01/04 04:36:00;;;;;;;;;;;;;;;15.35;41.71;98466.94;4483618;32;34009;-86
2022/01/04 04:38:27;;;;;;;;;;;;;;;15.45;41.56;98463.25;4483576;32;33383;-89
2022/01/04 04:40:54;;;;;;;;;;;;;;;15.48;41.31;98461.44;4483738;32;34189;-86
2022/01/04 04:43:22;;;;;;;;;;;;;;;15.33;41.59;98456.50;4483701;32;34264;-89
2022/01/04 04:45:49;;;;;;;;;;;;;;;15.44;41.44;98457.19;4483739;32;34390;-88
2022/01/04 04:48:16;;;;;;;;;;;;;;;15.17;41.88;98466.34;4482844;32;33557;-85
2022/01/04 04:50:43;;;;;;;;;;;;;;;15.43;41.14;98463.28;4484146;32;33766;-88
2022/01/04 04:53:11;;;;;;;;;;;;;;;15.50;40.95;98458.84;4483926;32;34939;-90
2022/01/04 04:55:38;;;;;;;;;;;;;;;15.48;40.93;98447.53;4483177;32;34355;-89
2022/01/04 04:58:05;;;;;;;;;;;;;;;15.51;40.90;98437.87;4483076;32;34307;-90
2022/01/04 05:00:33;;;;;;;;;;;;;;;15.63;40.32;98434.19;4483526;32;33669;-89
2022/01/04 05:03:02;;;;;;;;;;;;;;;15.48;40.49;98435.31;4483413;32;34116;-89
2022/01/04 05:05:30;;;;;;;;;;;;;;;15.41;40.27;98436.31;4483410;32;33886;-85
2022/01/04 05:07:57;;;;;;;;;;;;;;;15.45;40.23;98435.38;4483179;32;34128;-86
2022/01/04 05:10:24;;;;;;;;;;;;;;;15.32;40.38;98433.91;4483362;32;34252;-86
2022/01/04 05:12:51;;;;;;;;;;;;;;;15.39;40.31;98435.50;4483147;32;34423;-89
2022/01/04 05:15:19;;;;;;;;;;;;;;;15.38;40.09;98439.03;4482366;32;34757;-88
2022/01/04 05:17:46;;;;;;;;;;;;;;;15.50;39.51;98444.00;4482657;32;33611;-89
2022/01/04 05:20:13;;;;;;;;;;;;;;;15.44;39.66;98449.34;4480473;32;34219;-84
2022/01/04 05:22:41;;;;;;;;;;;;;;;15.24;39.85;98439.25;4480181;32;35381;-86
2022/01/04 05:25:08;;;;;;;;;;;;;;;15.28;39.82;98437.47;4482114;32;35122;-89
2022/01/04 05:27:36;;;;;;;;;;;;;;;15.27;40.04;98440.97;4482073;32;33273;-89
2022/01/04 05:30:04;;;;;;;;;;;;;;;15.36;39.56;98435.56;4482685;32;34394;-87
2022/01/04 05:32:31;;;;;;;;;;;;;;;15.47;38.93;98428.38;4482110;32;35218;-87
2022/01/04 05:34:58;;;;;;;;;;;;;;;15.14;39.70;98419.41;4482465;32;35221;-86
2022/01/04 05:37:26;;;;;;;;;;;;;;;15.22;39.43;98409.69;4482263;32;34310;-89
2022/01/04 05:39:53;;;;;;;;;;;;;;;15.08;39.61;98409.09;4482301;32;34933;-86
2022/01/04 05:42:20;;;;;;;;;;;;;;;15.06;39.34;98401.28;4483046;32;34947;-85
2022/01/04 05:44:47;;;;;;;;;;;;;;;15.04;39.39;98408.28;4480749;32;33720;-83
2022/01/04 05:47:15;;;;;;;;;;;;;;;15.07;39.54;98391.69;4475999;32;33284;-85
2022/01/04 05:49:42;;;;;;;;;;;;;;;15.04;39.58;98379.56;4482018;32;33960;-84
2022/01/04 05:52:09;;;;;;;;;;;;;;;15.15;39.16;98375.88;4482103;32;34249;-87
2022/01/04 05:54:36;;;;;;;;;;;;;;;14.93;39.60;98378.91;4481041;32;34157;-84
2022/01/04 05:57:04;;;;;;;;;;;;;;;14.95;39.84;98376.25;4481858;32;33243;-86
2022/01/04 05:59:32;;;;;;;;;;;;;;;14.75;40.46;98374.00;4481308;32;33743;-87
2022/01/04 06:02:00;;;;;;;;;;;;;;;14.64;40.71;98383.72;4483337;32;33874;-86
2022/01/04 06:04:27;;;;;;;;;;;;;;;14.75;40.44;98374.00;4482795;32;33750;-87
2022/01/04 06:06:55;;;;;;;;;;;;;;;14.70;40.92;98391.44;4483304;32;33485;-88
2022/01/04 06:09:27;;;;;;;;;;;;;;;14.59;41.09;98382.06;4483161;32;34933;-86
2022/01/04 06:12:00;;;;;;;;;;;;;;;14.67;41.07;98368.03;4482918;32;35266;-88
2022/01/04 06:17:14;;;;;;;;;;;;;;;14.42;41.65;98365.78;4483439;32;32795;-86
2022/01/04 06:19:41;;;;;;;;;;;;;;;13.93;43.48;98366.47;4481866;32;34157;-85
2022/01/04 06:22:08;;;;;;;;;;;;;;;13.84;44.77;98369.22;4482899;32;34232;-88
2022/01/04 06:24:36;;;;;;;;;;;;;;;14.28;43.76;98367.72;4483004;32;35265;-84
2022/01/04 06:27:04;;;;;;;;;;;;;;;13.66;44.76;98361.63;4481693;32;33691;-85
2022/01/04 06:29:32;;;;;;;;;;;;;;;13.75;44.21;98359.78;4482969;32;34610;-87
2022/01/04 06:32:00;;;;;;;;;;;;;;;13.87;43.90;98356.16;4470974;32;35318;-86
2022/01/04 06:34:27;;;;;;;;;;;;;;;13.93;43.39;98350.00;4467275;32;33935;-87
2022/01/04 06:36:54;;;;;;;;;;;;;;;12.98;47.78;98351.94;4466110;32;33267;-84
2022/01/04 06:39:21;;;;;;;;;;;;;;;13.66;44.64;98351.22;4467143;32;34905;-86
2022/01/04 06:41:48;;;;;;;;;;;;;;;13.94;43.63;98346.50;4467145;32;34104;-85
2022/01/04 06:44:16;;;;;;;;;;;;;;;13.74;43.93;98349.38;4466963;32;33917;-87
2022/01/04 06:46:45;;;;;;;;;;;;;;;13.70;44.05;98345.09;4467075;32;34167;-85
2022/01/04 06:49:13;;;;;;;;;;;;;;;14.12;43.12;98349.69;4466918;32;34415;-87
2022/01/04 06:51:40;;;;;;;;;;;;;;;14.15;42.71;98340.13;4467279;32;34660;-86
2022/01/04 06:54:09;;;;;;;;;;;;;;;14.22;42.47;98334.81;4467625;32;34271;-85
2022/01/04 06:56:36;;;;;;;;;;;;;;;14.10;42.45;98338.44;4466866;32;33275;-86
2022/01/04 06:59:04;;;;;;;;;;;;;;;14.19;42.43;98337.44;4467054;32;34206;-85
2022/01/04 07:01:32;;;;;;;;;;;;;;;13.94;42.92;98336.97;4465805;32;34367;-85
2022/01/04 07:03:59;;;;;;;;;;;;;;;14.32;42.09;98332.94;4465574;32;34228;-88
2022/01/04 07:06:26;;;;;;;;;;;;;;;14.12;42.67;98328.84;4467050;32;34208;-85
2022/01/04 07:08:54;;;;;;;;;;;;;;;14.40;42.17;98324.97;4466971;32;34759;-87
2022/01/04 07:11:21;;;;;;;;;;;;;;;14.48;41.98;98323.97;4466574;32;35112;-87
2022/01/04 07:13:48;;;;;;;;;;;;;;;14.69;41.74;98324.50;4469102;32;35252;-88
2022/01/04 07:16:16;;;;;;;;;;;;;;;14.50;42.37;98343.06;4468918;32;34361;-85
2022/01/04 07:18:48;;;;;;;;;;;;;;;14.70;42.00;98344.47;4467793;32;35140;-85
2022/01/04 07:21:16;;;;;;;;;;;;;;;14.54;42.53;98360.38;4468927;32;35050;-85
2022/01/04 07:23:43;;;;;;;;;;;;;;;14.75;42.30;98353.13;4468794;32;33855;-86
2022/01/04 07:26:16;;;;;;;;;;;;;;;14.81;42.33;98361.72;4468505;32;33413;-86
2022/01/04 07:28:45;;;;;;;;;;;;;;;14.75;42.71;98355.72;4468817;32;33954;-85
2022/01/04 07:31:12;;;;;;;;;;;;;;;14.99;42.28;98359.66;4467543;32;34351;-84
2022/01/04 07:33:40;;;;;;;;;;;;;;;14.47;43.47;98363.97;4467567;32;33452;-87
2022/01/04 07:36:07;;;;;;;;;;;;;;;14.85;42.83;98365.13;4467812;32;32989;-88
2022/01/04 07:38:35;;;;;;;;;;;;;;;14.78;43.19;98356.53;4468964;32;33715;-85
2022/01/04 07:41:03;;;;;;;;;;;;;;;14.57;43.89;98339.47;4468863;32;34222;-86
2022/01/04 07:43:30;;;;;;;;;;;;;;;14.69;43.80;98342.78;4467397;32;33997;-85
2022/01/04 07:45:58;;;;;;;;;;;;;;;15.03;43.03;98343.03;4467435;32;33096;-85
2022/01/04 07:48:25;;;;;;;;;;;;;;;14.78;43.51;98345.25;4468580;32;34944;-85
2022/01/04 07:50:58;;;;;;;;;;;;;;;14.87;43.40;98333.78;4467388;32;34118;-87
2022/01/04 07:53:29;;;;;;;;;;;;;;;14.61;44.08;98335.06;4467282;32;34930;-87
2022/01/04 07:55:56;;;;;;;;;;;;;;;14.53;44.69;98332.59;4468854;32;33419;-88
2022/01/04 07:58:25;;;;;;;;;;;;;;;15.08;43.52;98321.19;4468525;32;33904;-84
2022/01/04 08:00:52;;;;;;;;;;;;;;;14.56;45.26;98310.81;4467420;32;34085;-85
2022/01/04 08:03:20;;;;;;;;;;;;;;;14.31;45.97;98316.37;4467124;32;34379;-85
2022/01/04 08:05:51;;;;;;;;;;;;;;;14.05;47.04;98311.59;4468577;32;34441;-85
2022/01/04 08:08:18;;;;;;;;;;;;;;;14.59;46.03;98311.63;4468286;32;34088;-87
2022/01/04 08:10:47;;;;;;;;;;;;;;;14.35;46.80;98296.34;4468498;32;33530;-86
2022/01/04 08:13:15;;;;;;;;;;;;;;;14.51;46.37;98307.44;4468746;32;34021;-86
2022/01/04 08:15:43;;;;;;;;;;;;;;;14.24;47.45;98306.09;4468282;32;33153;-85
2022/01/04 08:18:10;;;;;;;;;;;;;;;14.98;45.83;98285.69;4468431;32;34490;-86
2022/01/04 08:20:37;;;;;;;;;;;;;;;15.04;45.84;98285.59;4468281;32;34485;-85
2022/01/04 08:23:04;;;;;;;;;;;;;;;14.96;45.93;98279.63;4467746;32;34519;-86
2022/01/04 08:25:32;;;;;;;;;;;;;;;14.31;47.22;98274.69;4468082;32;33328;-87
2022/01/04 08:27:59;;;;;;;;;;;;;;;15.31;45.11;98275.50;4468349;32;34999;-85
2022/01/04 08:30:26;;;;;;;;;;;;;;;13.68;49.00;98281.75;4468100;32;35183;-85
2022/01/04 08:32:54;;;;;;;;;;;;;;;14.16;47.73;98269.72;4468224;32;34556;-86
2022/01/04 08:35:22;;;;;;;;;;;;;;;14.06;47.97;98268.16;4468305;32;33299;-87
2022/01/04 08:37:49;;;;;;;;;;;;;;;14.04;47.85;98273.38;4468190;32;34432;-86
2022/01/04 08:40:17;;;;;;;;;;;;;;;14.02;48.16;98274.31;4468110;32;34369;-87
2022/01/04 08:42:44;;;;;;;;;;;;;;;14.90;46.26;98269.34;4468213;32;32993;-84
2022/01/04 08:45:11;;;;;;;;;;;;;;;14.74;46.71;98273.97;4468030;32;34455;-87
2022/01/04 08:47:39;;;;;;;;;;;;;;;14.55;46.94;98278.66;4468216;32;34344;-84
2022/01/04 08:50:08;;;;;;;;;;;;;;;14.52;46.74;98270.87;4468508;32;33977;-86
2022/01/04 08:52:35;;;;;;;;;;;;;;;14.66;47.06;98261.94;4467777;32;34687;-85
2022/01/04 08:55:03;;;;;;;;;;;;;;;14.97;45.99;98264.88;4468262;32;33521;-85
2022/01/04 08:57:30;;;;;;;;;;;;;;;14.36;47.45;98264.19;4468191;32;33124;-87
2022/01/04 08:59:57;;;;;;;;;;;;;;;14.10;48.01;98260.25;4467839;32;34216;-88
2022/01/04 09:02:25;;;;;;;;;;;;;;;14.64;47.15;98245.47;4468077;32;34129;-87
2022/01/04 09:04:52;;;;;;;;;;;;;;;13.64;49.42;98254.87;4468417;32;33313;-85
2022/01/04 09:07:20;;;;;;;;;;;;;;;14.12;48.10;98235.00;4467738;32;33913;-85
2022/01/04 09:09:49;;;;;;;;;;;;;;;14.41;47.38;98249.31;4468128;32;34904;-85
2022/01/04 09:12:36;;;;;;;;;;;;;;;14.03;48.53;98253.41;4467824;32;35030;-85
2022/01/04 09:15:27;;;;;;;;;;;;;;;14.41;47.18;98243.25;4468069;32;33493;-84
2022/01/04 09:20:40;;;;;;;;;;;;;;;14.62;47.45;98234.19;4467930;32;35262;-86
2022/01/04 09:23:07;;;;;;;;;;;;;;;15.07;46.10;98215.03;4467588;32;34244;-85
2022/01/04 09:25:34;;;;;;;;;;;;;;;13.73;49.51;98212.22;4467950;32;33491;-86
2022/01/04 09:28:07;;;;;;;;;;;;;;;14.36;48.22;98212.03;4467896;32;33973;-85
2022/01/04 09:30:39;;;;;;;;;;;;;;;14.26;47.98;98203.50;4467901;32;34661;-85
2022/01/04 09:33:06;;;;;;;;;;;;;;;14.29;48.11;98205.22;4465575;32;34102;-84
2022/01/04 09:35:35;;;;;;;;;;;;;;;13.54;50.52;98212.47;4467962;32;34003;-87
2022/01/04 09:38:03;;;;;;;;;;;;;;;13.61;50.02;98203.69;4467786;32;34737;-87
2022/01/04 09:40:30;;;;;;;;;;;;;;;13.26;50.99;98190.31;4467948;32;34424;-86
2022/01/04 09:42:58;;;;;;;;;;;;;;;13.25;51.46;98183.38;4467649;32;34397;-84
2022/01/04 09:45:25;;;;;;;;;;;;;;;13.92;50.00;98176.31;4467948;32;34162;-84
2022/01/04 09:47:52;;;;;;;;;;;;;;;14.14;49.27;98176.81;4467856;32;34601;-84
2022/01/04 09:50:20;;;;;;;;;;;;;;;14.24;49.10;98173.13;4467651;32;34821;-85
2022/01/04 09:52:47;;;;;;;;;;;;;;;13.78;50.41;98169.56;4466507;32;33918;-85
2022/01/04 09:55:15;;;;;;;;;;;;;;;14.06;49.88;98149.13;4468152;32;34034;-87
2022/01/04 09:57:44;;;;;;;;;;;;;;;13.55;51.34;98146.47;4466480;32;33849;-84
2022/01/04 10:00:15;;;;;;;;;;;;;;;14.63;48.98;98139.44;4466527;32;33720;-86
2022/01/04 10:02:43;;;;;;;;;;;;;;;13.60;51.69;98133.41;4467655;32;34426;-85
2022/01/04 10:05:14;;;;;;;;;;;;;;;14.59;49.26;98129.03;4467386;32;33294;-86
2022/01/04 10:07:42;;;;;;;;;;;;;;;14.51;49.38;98128.34;4466465;32;34807;-87
2022/01/04 10:10:13;;;;;;;;;;;;;;;14.86;48.70;98121.53;4466760;32;35208;-84
2022/01/04 10:13:07;;;;;;;;;;;;;;;14.82;48.92;98119.88;4466231;32;34000;-84
2022/01/04 10:15:34;;;;;;;;;;;;;;;14.80;49.01;98116.44;4464885;32;33286;-85
2022/01/04 10:18:23;;;;;;;;;;;;;;;14.57;50.10;98099.50;4467583;32;34409;-84
2022/01/04 10:21:02;;;;;;;;;;;;;;;14.87;49.71;98098.91;4467190;32;35198;-88
2022/01/04 10:23:30;;;;;;;;;;;;;;;15.01;49.57;98095.13;4467343;32;33747;-85
2022/01/04 10:26:01;;;;;;;;;;;;;;;15.34;48.48;98090.00;4467499;32;33185;-85
2022/01/04 10:28:29;;;;;;;;;;;;;;;15.13;49.47;98093.13;4466120;32;34917;-85
2022/01/04 10:31:07;;;;;;;;;;;;;;;15.07;49.67;98089.72;4466050;32;34257;-84
2022/01/04 10:33:35;;;;;;;;;;;;;;;15.35;49.62;98089.13;4467279;32;33750;-85
2022/01/04 10:36:11;;;;;;;;;;;;;;;14.78;50.78;98093.00;4467670;32;33570;-85
2022/01/04 10:38:40;;;;;;;;;;;;;;;13.85;52.75;98082.59;4466096;32;34287;-85
2022/01/04 10:41:10;;;;;;;;;;;;;;;14.94;50.34;98074.41;4467347;32;34506;-85
2022/01/04 10:43:43;;;;;;;;;;;;;;;15.16;49.88;98078.25;4467147;32;34853;-84
2022/01/04 10:46:12;;;;;;;;;;;;;;;14.49;51.48;98072.72;4466924;32;34362;-82
2022/01/04 10:48:41;;;;;;;;;;;;;;;14.54;51.49;98067.41;4467124;32;34253;-84
2022/01/04 10:51:09;;;;;;;;;;;;;;;15.21;50.62;98078.13;4465984;32;34266;-86
2022/01/04 10:53:41;;;;;;;;;;;;;;;15.30;50.26;98081.41;4465815;32;34802;-88
2022/01/04 10:56:09;;;;;;;;;;;;;;;16.02;48.44;98074.41;4467144;32;33149;-85
2022/01/04 10:58:40;;;;;;;;;;;;;;;15.85;48.84;98068.75;4465536;32;33976;-86
2022/01/04 11:01:08;;;;;;;;;;;;;;;15.30;49.83;98070.97;4466977;32;34234;-86
2022/01/04 11:03:37;;;;;;;;;;;;;;;15.93;48.68;98066.78;4466645;32;34990;-84
2022/01/04 11:06:09;;;;;;;;;;;;;;;15.85;49.07;98053.06;4466768;32;34159;-85
2022/01/04 11:08:37;;;;;;;;;;;;;;;16.16;47.87;98036.56;4466879;32;35019;-86
2022/01/04 11:11:05;;;;;;;;;;;;;;;15.92;48.73;98041.56;4466832;32;34203;-85
2022/01/04 11:13:32;;;;;;;;;;;;;;;15.91;48.78;98037.22;4465320;32;34944;-85
2022/01/04 11:16:01;;;;;;;;;;;;;;;15.58;49.64;98031.09;4465464;32;32828;-84
2022/01/04 11:18:29;;;;;;;;;;;;;;;15.21;50.75;98021.53;4466520;32;34219;-84
2022/01/04 11:20:56;;;;;;;;;;;;;;;15.20;50.83;98022.44;4466632;32;34449;-86
2022/01/04 11:23:25;;;;;;;;;;;;;;;15.26;50.66;98016.22;4466626;32;34664;-86
2022/01/04 11:25:53;;;;;;;;;;;;;;;15.23;50.82;98000.66;4466712;32;33683;-87
2022/01/04 11:28:20;;;;;;;;;;;;;;;15.25;50.63;98004.06;4466819;32;34228;-85
2022/01/04 11:30:54;;;;;;;;;;;;;;;15.36;50.14;98007.25;4466528;32;34541;-86
2022/01/04 11:33:28;;;;;;;;;;;;;;;15.75;49.04;98012.37;4465149;32;34485;-85
2022/01/04 11:35:56;;;;;;;;;;;;;;;15.11;50.57;98020.03;4465311;32;33306;-85
2022/01/04 11:38:30;;;;;;;;;;;;;;;15.25;50.69;98019.72;4465566;32;34702;-86
2022/01/04 11:40:57;;;;;;;;;;;;;;;15.88;49.05;98000.72;4466215;32;34242;-88
2022/01/04 11:43:26;;;;;;;;;;;;;;;15.47;50.12;97979.13;4466401;32;34137;-88
2022/01/04 11:45:53;;;;;;;;;;;;;;;15.68;49.80;97969.03;4465211;32;33228;-85
2022/01/04 11:48:33;;;;;;;;;;;;;;;15.93;49.25;97964.84;4465946;32;34225;-88
2022/01/04 11:51:05;;;;;;;;;;;;;;;15.32;50.44;97974.28;4466331;32;33642;-88
2022/01/04 11:53:32;;;;;;;;;;;;;;;15.68;49.81;97979.47;4466052;32;32712;-87
2022/01/04 11:56:02;;;;;;;;;;;;;;;15.72;49.79;97965.41;4466213;32;34026;-86
2022/01/04 11:58:42;;;;;;;;;;;;;;;15.43;50.35;97956.59;4468375;32;33742;-87
2022/01/04 12:01:11;;;;;;;;;;;;;;;15.62;50.03;97948.28;4468392;32;35035;-84
2022/01/04 12:03:40;;;;;;;;;;;;;;;15.44;50.35;97962.66;4468574;32;33684;-85
2022/01/04 12:06:08;;;;;;;;;;;;;;;15.48;50.68;97967.75;4467493;32;34185;-87
2022/01/04 12:08:36;;;;;;;;;;;;;;;15.64;50.18;97962.12;4468521;32;34258;-87
2022/01/04 12:11:24;;;;;;;;;;;;;;;15.21;50.85;97968.47;4468663;32;34267;-87
2022/01/04 12:13:58;;;;;;;;;;;;;;;16.00;49.33;97962.91;4468323;32;35239;-87
2022/01/04 12:16:34;;;;;;;;;;;;;;;15.29;51.32;97953.47;4468499;32;33798;-85
2022/01/04 12:19:02;;;;;;;;;;;;;;;15.70;50.19;97949.81;4468533;32;34961;-85
2022/01/04 12:21:31;;;;;;;;;;;;;;;15.68;50.39;97955.97;4467299;32;34283;-84
2022/01/04 12:23:58;;;;;;;;;;;;;;;15.36;51.23;97951.56;4468189;32;33861;-88
2022/01/04 12:26:27;;;;;;;;;;;;;;;15.30;51.44;97958.69;4468375;32;33244;-85
2022/01/04 12:28:55;;;;;;;;;;;;;;;15.89;50.05;97947.53;4468369;32;35114;-84
2022/01/04 12:31:28;;;;;;;;;;;;;;;15.66;50.53;97942.94;4468026;32;34068;-86
2022/01/04 12:34:03;;;;;;;;;;;;;;;15.49;51.29;97942.50;4468408;32;34936;-85
2022/01/04 12:36:30;;;;;;;;;;;;;;;15.33;51.57;97942.91;4468126;32;34072;-84
2022/01/04 12:38:58;;;;;;;;;;;;;;;15.81;50.21;97932.06;4468250;32;34120;-85
2022/01/04 12:41:25;;;;;;;;;;;;;;;15.58;50.58;97929.22;4468510;32;33948;-85
2022/01/04 12:43:52;;;;;;;;;;;;;;;15.52;50.79;97922.38;4466710;32;34445;-84
2022/01/04 12:46:27;;;;;;;;;;;;;;;15.31;51.41;97921.22;4466559;32;33187;-85
2022/01/04 12:48:59;;;;;;;;;;;;;;;15.23;51.31;97917.09;4468068;32;34986;-88
2022/01/04 12:51:28;;;;;;;;;;;;;;;15.16;51.75;97900.72;4466675;32;33775;-88
2022/01/04 12:53:59;;;;;;;;;;;;;;;15.37;51.35;97904.50;4468187;32;33516;-85
2022/01/04 12:56:27;;;;;;;;;;;;;;;15.17;51.36;97898.97;4466851;32;32717;-85
2022/01/04 12:58:55;;;;;;;;;;;;;;;15.11;51.31;97891.28;4460304;32;208812;-88
2022/01/04 13:01:27;;;;;;;;;;;;;;;15.18;51.54;97892.84;4466418;32;35190;-88